createdAt,value
2022-09-27T00:00:37.600Z,95876.19
2022-09-27T00:02:45.601Z,95873.53
2022-09-27T00:04:56.333Z,95871.03
2022-09-27T00:07:04.328Z,95873.84
2022-09-27T00:09:13.445Z,95865.31
2022-09-27T00:11:29.451Z,95862.81
2022-09-27T00:13:37.550Z,95864.06
2022-09-27T00:15:45.415Z,95863.66
2022-09-27T00:17:53.828Z,95856.63
2022-09-27T00:20:05.648Z,95855.28
2022-09-27T00:22:13.538Z,95855.13
2022-09-27T00:24:24.822Z,95861.69
2022-09-27T00:26:32.952Z,95846.31
2022-09-27T00:28:40.830Z,95848.25
2022-09-27T00:30:48.775Z,95843.38
2022-09-27T00:32:58.542Z,95846.03
2022-09-27T00:35:09.339Z,95841.84
2022-09-27T00:37:20.330Z,95835.28
2022-09-27T00:39:28.717Z,95833.75
2022-09-27T00:41:38.684Z,95830.53
2022-09-27T00:43:50.916Z,95829.56
2022-09-27T00:46:03.761Z,95824.53
2022-09-27T00:48:18.866Z,95828.16
2022-09-27T00:50:32.785Z,95816.84
2022-09-27T00:52:48.898Z,95807.06
2022-09-27T00:55:03.239Z,95804.72
2022-09-27T00:57:12.270Z,95805.69
2022-09-27T00:59:26.992Z,95811.25
2022-09-27T01:01:35.115Z,95804.56
2022-09-27T01:03:48.947Z,95803.16
2022-09-27T01:06:01.450Z,95800.91
2022-09-27T01:08:10.263Z,95790.31
2022-09-27T01:10:19.212Z,95797.84
2022-09-27T01:12:34.676Z,95803.97
2022-09-27T01:15:03.483Z,95807.78
2022-09-27T01:17:29.406Z,95812.50
2022-09-27T01:20:00.050Z,95799.00
2022-09-27T01:22:17.875Z,95805.97
2022-09-27T01:24:43.933Z,95798.00
2022-09-27T01:27:24.555Z,95793.53
2022-09-27T01:29:42.893Z,95791.19
2022-09-27T01:32:05.853Z,95780.28
2022-09-27T01:34:21.196Z,95773.88
2022-09-27T01:36:37.597Z,95775.13
2022-09-27T01:38:56.414Z,95774.13
2022-09-27T01:41:10.747Z,95771.91
2022-09-27T01:43:39.477Z,95773.03
2022-09-27T01:45:55.046Z,95768.56
2022-09-27T01:48:26.673Z,95772.72
2022-09-27T01:50:42.299Z,95769.13
2022-09-27T01:52:54.115Z,95770.50
2022-09-27T01:55:08.434Z,95770.91
2022-09-27T01:57:49.207Z,95773.56
2022-09-27T02:00:08.024Z,95781.94
2022-09-27T02:02:26.233Z,95775.38
2022-09-27T02:05:18.060Z,95772.56
2022-09-27T02:07:36.292Z,95769.91
2022-09-27T02:09:51.221Z,95775.09
2022-09-27T02:12:08.481Z,95782.19
2022-09-27T02:14:22.587Z,95781.66
2022-09-27T02:16:47.721Z,95786.97
2022-09-27T02:19:05.415Z,95793.94
2022-09-27T02:21:21.129Z,95784.72
2022-09-27T02:23:37.937Z,95791.56
2022-09-27T02:25:57.165Z,95797.28
2022-09-27T02:28:12.953Z,95789.72
2022-09-27T02:30:23.126Z,95796.16
2022-09-27T02:32:39.108Z,95796.00
2022-09-27T02:34:49.823Z,95796.00
2022-09-27T02:37:00.446Z,95785.97
2022-09-27T02:39:10.119Z,95782.47
2022-09-27T02:41:18.798Z,95792.78
2022-09-27T02:43:31.977Z,95781.66
2022-09-27T02:45:54.957Z,95789.75
2022-09-27T02:48:14.547Z,95789.75
2022-09-27T02:50:52.063Z,95783.19
2022-09-27T02:53:18.518Z,95783.19
2022-09-27T02:55:44.371Z,95798.41
2022-09-27T02:58:30.279Z,95796.91
2022-09-27T03:01:06.154Z,95795.63
2022-09-27T03:03:53.561Z,95811.53
2022-09-27T03:06:07.187Z,95816.56
2022-09-27T03:08:20.190Z,95821.47
2022-09-27T03:10:32.871Z,95824.94
2022-09-27T03:12:41.664Z,95838.19
2022-09-27T03:14:49.635Z,95848.97
2022-09-27T03:17:17.742Z,95854.97
2022-09-27T03:19:44.195Z,95865.97
2022-09-27T03:22:11.777Z,95862.06
2022-09-27T03:24:22.299Z,95860.66
2022-09-27T03:26:32.049Z,95882.25
2022-09-27T03:28:39.902Z,95885.22
2022-09-27T03:30:48.976Z,95892.19
2022-09-27T03:33:19.934Z,95898.03
2022-09-27T03:35:31.576Z,95898.03
2022-09-27T03:37:39.690Z,95906.94
2022-09-27T03:39:50.717Z,95908.66
2022-09-27T03:41:58.616Z,95912.50
2022-09-27T03:44:06.521Z,95916.38
2022-09-27T03:46:14.497Z,95908.41
2022-09-27T03:48:27.759Z,95912.31
2022-09-27T03:50:36.315Z,95909.22
2022-09-27T03:52:46.204Z,95906.84
2022-09-27T03:55:01.860Z,95905.59
2022-09-27T03:57:11.728Z,95907.84
2022-09-27T03:59:21.133Z,95914.69
2022-09-27T04:02:04.082Z,95912.03
2022-09-27T04:04:33.485Z,95905.13
2022-09-27T04:06:41.391Z,95902.75
2022-09-27T04:08:50.370Z,95901.06
2022-09-27T04:11:01.254Z,95904.16
2022-09-27T04:13:09.932Z,95911.72
2022-09-27T04:15:28.544Z,95910.00
2022-09-27T04:17:55.159Z,95916.03
2022-09-27T04:20:14.873Z,95902.06
2022-09-27T04:22:24.562Z,95914.06
2022-09-27T04:24:33.026Z,95911.16
2022-09-27T04:27:03.449Z,95915.75
2022-09-27T04:29:12.236Z,95919.78
2022-09-27T04:31:29.904Z,95918.69
2022-09-27T04:33:49.939Z,95922.22
2022-09-27T04:36:15.966Z,95926.25
2022-09-27T04:38:39.808Z,95932.38
2022-09-27T04:40:49.302Z,95927.94
2022-09-27T04:43:00.257Z,95928.91
2022-09-27T04:45:09.553Z,95929.75
2022-09-27T04:47:18.511Z,95934.63
2022-09-27T04:49:26.627Z,95931.13
2022-09-27T04:51:34.514Z,95934.50
2022-09-27T04:53:42.494Z,95937.97
2022-09-27T04:55:50.595Z,95926.94
2022-09-27T04:58:01.782Z,95933.94
2022-09-27T05:00:12.543Z,95927.94
2022-09-27T05:02:20.959Z,95941.19
2022-09-27T05:05:00.595Z,95943.41
2022-09-27T05:07:15.510Z,95945.78
2022-09-27T05:09:28.502Z,95950.00
2022-09-27T05:11:38.946Z,95955.31
2022-09-27T05:14:09.572Z,95952.34
2022-09-27T05:16:33.961Z,95958.69
2022-09-27T05:19:17.375Z,95974.59
2022-09-27T05:21:44.013Z,95971.78
2022-09-27T05:24:02.271Z,95968.69
2022-09-27T05:26:11.980Z,95966.19
2022-09-27T05:28:20.022Z,95978.75
2022-09-27T05:30:30.669Z,95976.38
2022-09-27T05:32:54.772Z,95972.91
2022-09-27T05:35:21.312Z,95979.03
2022-09-27T05:37:30.117Z,95983.88
2022-09-27T05:39:38.463Z,95982.25
2022-09-27T05:41:46.520Z,95985.88
2022-09-27T05:43:54.720Z,95998.81
2022-09-27T05:46:05.592Z,95998.69
2022-09-27T05:48:14.949Z,95998.38
2022-09-27T05:50:42.480Z,95998.56
2022-09-27T05:52:50.908Z,96010.00
2022-09-27T05:55:00.642Z,96013.50
2022-09-27T05:57:08.823Z,96011.38
2022-09-27T05:59:28.562Z,96019.28
2022-09-27T06:02:02.139Z,96023.56
2022-09-27T06:04:30.066Z,96010.78
2022-09-27T06:06:59.138Z,96027.63
2022-09-27T06:09:07.217Z,96030.03
2022-09-27T06:11:15.773Z,96027.91
2022-09-27T06:13:24.015Z,96033.69
2022-09-27T06:15:34.572Z,96024.97
2022-09-27T06:17:46.035Z,96027.53
2022-09-27T06:19:59.685Z,96026.06
2022-09-27T06:22:07.756Z,96023.13
2022-09-27T06:24:29.794Z,96033.72
2022-09-27T06:26:40.694Z,96033.88
2022-09-27T06:29:07.948Z,96034.56
2022-09-27T06:31:16.907Z,96041.38
2022-09-27T06:33:46.092Z,96040.59
2022-09-27T06:35:54.991Z,96054.69
2022-09-27T06:38:07.196Z,96056.81
2022-09-27T06:40:15.806Z,96070.94
2022-09-27T06:42:42.137Z,96079.56
2022-09-27T06:44:59.017Z,96082.34
2022-09-27T06:47:16.053Z,96085.84
2022-09-27T06:49:52.456Z,96085.44
2022-09-27T06:52:02.271Z,96084.75
2022-09-27T06:54:10.409Z,96079.34
2022-09-27T06:56:18.452Z,96093.59
2022-09-27T06:58:42.692Z,96095.44
2022-09-27T07:01:22.422Z,96110.75
2022-09-27T07:03:53.230Z,96114.09
2022-09-27T07:06:25.951Z,96123.31
2022-09-27T07:08:40.175Z,96128.09
2022-09-27T07:10:48.116Z,96127.34
2022-09-27T07:12:56.765Z,96133.50
2022-09-27T07:15:09.431Z,96139.81
2022-09-27T07:17:17.572Z,96139.84
2022-09-27T07:19:28.498Z,96147.22
2022-09-27T07:21:39.841Z,96152.84
2022-09-27T07:23:47.970Z,96157.91
2022-09-27T07:25:56.537Z,96150.06
2022-09-27T07:28:05.498Z,96158.03
2022-09-27T07:30:15.160Z,96161.50
2022-09-27T07:32:24.616Z,96163.63
2022-09-27T07:34:38.107Z,96169.38
2022-09-27T07:36:48.787Z,96177.75
2022-09-27T07:38:59.385Z,96175.94
2022-09-27T07:41:13.341Z,96174.56
2022-09-27T07:43:22.351Z,96180.25
2022-09-27T07:45:31.515Z,96183.59
2022-09-27T07:47:50.708Z,96183.34
2022-09-27T07:50:35.201Z,96192.94
2022-09-27T07:53:05.099Z,96189.59
2022-09-27T07:55:31.771Z,96196.84
2022-09-27T07:58:07.305Z,96188.75
2022-09-27T08:00:17.772Z,96195.34
2022-09-27T08:02:27.461Z,96208.50
2022-09-27T08:04:36.034Z,96200.28
2022-09-27T08:06:43.961Z,96197.94
2022-09-27T08:08:55.751Z,96198.09
2022-09-27T08:11:03.696Z,96207.63
2022-09-27T08:13:12.738Z,96216.72
2022-09-27T08:15:21.566Z,96212.97
2022-09-27T08:17:30.596Z,96228.63
2022-09-27T08:19:58.872Z,96227.94
2022-09-27T08:22:17.623Z,96222.88
2022-09-27T08:24:37.091Z,96230.84
2022-09-27T08:27:23.470Z,96227.91
2022-09-27T08:29:42.010Z,96242.34
2022-09-27T08:31:50.062Z,96246.69
2022-09-27T08:34:00.833Z,96237.53
2022-09-27T08:36:14.100Z,96244.56
2022-09-27T08:38:22.886Z,96250.50
2022-09-27T08:40:41.015Z,96255.97
2022-09-27T08:42:54.800Z,96256.38
2022-09-27T08:45:11.303Z,96248.00
2022-09-27T08:47:25.997Z,96250.97
2022-09-27T08:49:41.933Z,96257.28
2022-09-27T08:51:55.815Z,96257.06
2022-09-27T08:54:08.881Z,96255.00
2022-09-27T08:56:21.654Z,96248.59
2022-09-27T08:58:33.841Z,96245.84
2022-09-27T09:00:43.749Z,96249.19
2022-09-27T09:02:52.401Z,96256.47
2022-09-27T09:05:05.905Z,96250.44
2022-09-27T09:07:30.061Z,96257.81
2022-09-27T09:09:47.662Z,96256.59
2022-09-27T09:12:29.125Z,96253.72
2022-09-27T09:15:04.007Z,96253.59
2022-09-27T09:17:24.135Z,96265.91
2022-09-27T09:20:17.174Z,96259.53
2022-09-27T09:23:00.292Z,96267.25
2022-09-27T09:25:24.508Z,96269.13
2022-09-27T09:27:44.161Z,96291.19
2022-09-27T09:30:16.602Z,96308.38
2022-09-27T09:32:39.483Z,96335.03
2022-09-27T09:34:52.017Z,96331.22
2022-09-27T09:37:05.193Z,96316.28
2022-09-27T09:39:17.907Z,96340.81
2022-09-27T09:41:31.694Z,96338.19
2022-09-27T09:43:48.241Z,96337.25
2022-09-27T09:46:03.592Z,96329.34
2022-09-27T09:48:22.849Z,96306.34
2022-09-27T09:50:33.681Z,96297.97
2022-09-27T09:52:46.869Z,96280.47
2022-09-27T09:55:01.226Z,96272.13
2022-09-27T09:57:18.555Z,96271.97
2022-09-27T09:59:35.663Z,96280.84
2022-09-27T10:01:48.528Z,96281.22
2022-09-27T10:03:57.866Z,96276.97
2022-09-27T10:06:05.934Z,96257.78
2022-09-27T10:08:21.199Z,96260.75
2022-09-27T10:10:37.361Z,96267.81
2022-09-27T10:13:07.785Z,96277.94
2022-09-27T10:15:23.819Z,96289.00
2022-09-27T10:17:39.871Z,96295.75
2022-09-27T10:19:52.784Z,96284.31
2022-09-27T10:22:04.898Z,96306.38
2022-09-27T10:24:18.152Z,96301.03
2022-09-27T10:26:52.117Z,96289.41
2022-09-27T10:29:00.489Z,96301.44
2022-09-27T10:31:24.523Z,96303.16
2022-09-27T10:33:56.702Z,96296.84
2022-09-27T10:36:07.025Z,96272.16
2022-09-27T10:38:30.423Z,96274.69
2022-09-27T10:40:48.775Z,96266.03
2022-09-27T10:42:59.141Z,96244.25
2022-09-27T10:45:32.902Z,96241.88
2022-09-27T10:47:50.752Z,96237.03
2022-09-27T10:50:46.018Z,96246.59
2022-09-27T10:53:07.862Z,96232.81
2022-09-27T10:55:25.499Z,96235.63
2022-09-27T10:57:35.921Z,96228.38
2022-09-27T10:59:46.942Z,96231.16
2022-09-27T11:01:55.143Z,96220.88
2022-09-27T11:04:25.735Z,96220.31
2022-09-27T11:06:38.292Z,96220.06
2022-09-27T11:08:50.507Z,96212.25
2022-09-27T11:11:09.406Z,96216.63
2022-09-27T11:13:20.225Z,96212.59
2022-09-27T11:15:34.029Z,96212.41
2022-09-27T11:17:49.198Z,96205.28
2022-09-27T11:20:18.791Z,96206.84
2022-09-27T11:22:41.773Z,96206.38
2022-09-27T11:25:07.520Z,96210.41
2022-09-27T11:27:27.876Z,96199.84
2022-09-27T11:29:47.448Z,96202.00
2022-09-27T11:32:37.916Z,96196.06
2022-09-27T11:35:10.935Z,96203.25
2022-09-27T11:37:32.206Z,96194.13
2022-09-27T11:39:56.286Z,96190.47
2022-09-27T11:42:23.988Z,96184.16
2022-09-27T11:45:19.858Z,96178.59
2022-09-27T11:47:34.126Z,96171.31
2022-09-27T11:50:01.544Z,96173.81
2022-09-27T11:52:31.587Z,96172.00
2022-09-27T11:54:56.666Z,96168.66
2022-09-27T11:57:12.859Z,96170.09
2022-09-27T12:00:02.878Z,96168.44
2022-09-27T12:02:33.188Z,96180.28
2022-09-27T12:04:54.547Z,96184.31
2022-09-27T12:07:10.794Z,96170.13
2022-09-27T12:09:25.844Z,96179.75
2022-09-27T12:11:40.436Z,96181.66
2022-09-27T12:13:54.973Z,96182.09
2022-09-27T12:16:04.039Z,96184.97
2022-09-27T12:18:29.506Z,96177.44
2022-09-27T12:20:40.595Z,96174.72
2022-09-27T12:22:59.459Z,96173.09
2022-09-27T12:25:40.278Z,96179.63
2022-09-27T12:28:07.229Z,96166.34
2022-09-27T12:30:16.774Z,96176.97
2022-09-27T12:32:30.678Z,96188.91
2022-09-27T12:34:42.989Z,96198.06
2022-09-27T12:36:56.155Z,96196.34
2022-09-27T12:39:12.313Z,96188.38
2022-09-27T12:41:28.547Z,96195.94
2022-09-27T12:43:54.068Z,96193.28
2022-09-27T12:46:19.366Z,96190.31
2022-09-27T12:48:38.803Z,96189.97
2022-09-27T12:50:55.901Z,96190.03
2022-09-27T12:53:11.099Z,96186.34
2022-09-27T12:55:50.239Z,96190.00
2022-09-27T12:58:33.355Z,96187.25
2022-09-27T13:00:47.037Z,96181.22
2022-09-27T13:03:32.537Z,96182.50
2022-09-27T13:06:11.427Z,96179.97
2022-09-27T13:08:33.531Z,96173.66
2022-09-27T13:10:49.169Z,96174.97
2022-09-27T13:13:17.000Z,96176.69
2022-09-27T13:15:30.416Z,96167.16
2022-09-27T13:17:55.907Z,96176.47
2022-09-27T13:20:52.910Z,96176.94
2022-09-27T13:24:03.755Z,96169.41
2022-09-27T13:26:44.855Z,96162.03
2022-09-27T13:29:05.428Z,96163.41
2022-09-27T13:31:18.966Z,96158.19
2022-09-27T13:33:37.511Z,96163.03
2022-09-27T13:36:05.523Z,96156.72
2022-09-27T13:38:25.305Z,96160.44
2022-09-27T13:40:36.830Z,96168.06
2022-09-27T13:43:28.346Z,96150.16
2022-09-27T13:45:52.136Z,96155.88
2022-09-27T13:48:02.096Z,96163.91
2022-09-27T13:50:23.788Z,96162.41
2022-09-27T13:52:40.479Z,96164.53
2022-09-27T13:54:58.315Z,96163.22
2022-09-27T13:57:52.076Z,96162.16
2022-09-27T14:00:08.847Z,96165.03
2022-09-27T14:02:42.690Z,96157.75
2022-09-27T14:04:53.046Z,96138.59
2022-09-27T14:07:03.308Z,96144.91
2022-09-27T14:09:21.056Z,96140.31
2022-09-27T14:11:43.284Z,96132.19
2022-09-27T14:13:55.106Z,96132.41
2022-09-27T14:16:07.546Z,96125.13
2022-09-27T14:18:21.591Z,96121.25
2022-09-27T14:20:35.315Z,96129.56
2022-09-27T14:22:44.899Z,96132.03
2022-09-27T14:24:54.050Z,96132.13
2022-09-27T14:27:19.120Z,96146.53
2022-09-27T14:29:28.771Z,96156.81
2022-09-27T14:31:37.396Z,96145.84
2022-09-27T14:33:50.811Z,96148.63
2022-09-27T14:36:11.102Z,96147.81
2022-09-27T14:38:37.745Z,96150.28
2022-09-27T14:41:01.331Z,96172.13
2022-09-27T14:43:09.588Z,96162.34
2022-09-27T14:45:23.734Z,96166.16
2022-09-27T14:47:31.847Z,96172.44
2022-09-27T14:49:51.785Z,96165.34
2022-09-27T14:51:59.772Z,96162.38
2022-09-27T14:54:11.450Z,96158.63
2022-09-27T14:56:22.734Z,96164.03
2022-09-27T14:58:46.651Z,96167.56
2022-09-27T15:00:56.234Z,96163.13
2022-09-27T15:03:09.116Z,96168.28
2022-09-27T15:05:23.109Z,96168.28
2022-09-27T15:07:30.983Z,96165.69
2022-09-27T15:09:38.992Z,96174.63
2022-09-27T15:11:51.634Z,96154.59
2022-09-27T15:14:01.925Z,96160.13
2022-09-27T15:16:16.466Z,96170.81
2022-09-27T15:18:37.110Z,96161.34
2022-09-27T15:20:56.652Z,96166.47
2022-09-27T15:23:07.689Z,96187.94
2022-09-27T15:25:23.619Z,96178.28
2022-09-27T15:27:31.611Z,96151.34
2022-09-27T15:29:39.390Z,96157.81
2022-09-27T15:31:47.355Z,96158.75
2022-09-27T15:33:57.626Z,96169.13
2022-09-27T15:36:12.249Z,96170.72
2022-09-27T15:38:31.100Z,96174.09
2022-09-27T15:41:01.102Z,96175.50
2022-09-27T15:43:21.199Z,96185.91
2022-09-27T15:45:33.878Z,96185.50
2022-09-27T15:47:52.850Z,96180.06
2022-09-27T15:50:01.040Z,96175.56
2022-09-27T15:52:43.359Z,96180.06
2022-09-27T15:54:52.643Z,96186.22
2022-09-27T15:57:04.615Z,96188.16
2022-09-27T15:59:20.741Z,96182.16
2022-09-27T16:01:28.514Z,96183.41
2022-09-27T16:03:36.554Z,96187.88
2022-09-27T16:05:44.341Z,96185.38
2022-09-27T16:07:54.764Z,96198.69
2022-09-27T16:10:02.532Z,96198.41
2022-09-27T16:12:10.254Z,96202.16
2022-09-27T16:14:22.223Z,96201.91
2022-09-27T16:16:30.149Z,96204.25
2022-09-27T16:18:37.924Z,96208.63
2022-09-27T16:20:46.052Z,96202.84
2022-09-27T16:22:57.784Z,96209.16
2022-09-27T16:25:05.626Z,96201.34
2022-09-27T16:27:13.482Z,96203.28
2022-09-27T16:29:21.216Z,96212.22
2022-09-27T16:31:29.002Z,96205.75
2022-09-27T16:33:37.365Z,96208.81
2022-09-27T16:35:45.269Z,96214.44
2022-09-27T16:37:53.211Z,96213.19
2022-09-27T16:40:04.204Z,96201.81
2022-09-27T16:42:12.175Z,96205.28
2022-09-27T16:44:19.966Z,96215.94
2022-09-27T16:46:27.896Z,96205.03
2022-09-27T16:48:35.726Z,96202.94
2022-09-27T16:50:55.921Z,96206.41
2022-09-27T16:53:05.334Z,96206.41
2022-09-27T16:55:18.649Z,96198.97
2022-09-27T16:57:26.997Z,96204.56
2022-09-27T16:59:35.142Z,96206.94
2022-09-27T17:01:42.978Z,96204.97
2022-09-27T17:03:56.860Z,96211.00
2022-09-27T17:06:06.386Z,96218.13
2022-09-27T17:08:14.267Z,96217.94
2022-09-27T17:10:25.865Z,96220.44
2022-09-27T17:12:34.753Z,96213.88
2022-09-27T17:14:42.868Z,96209.38
2022-09-27T17:16:52.668Z,96217.59
2022-09-27T17:19:00.520Z,96213.13
2022-09-27T17:21:11.060Z,96215.63
2022-09-27T17:23:18.855Z,96216.47
2022-09-27T17:25:29.285Z,96216.75
2022-09-27T17:27:37.061Z,96210.03
2022-09-27T17:29:44.823Z,96221.19
2022-09-27T17:31:52.628Z,96217.56
2022-09-27T17:34:00.669Z,96212.09
2022-09-27T17:36:09.089Z,96217.00
2022-09-27T17:38:16.814Z,96219.91
2022-09-27T17:40:24.567Z,96207.63
2022-09-27T17:42:35.546Z,96210.53
2022-09-27T17:44:43.331Z,96202.84
2022-09-27T17:47:11.486Z,96206.72
2022-09-27T17:49:31.639Z,96201.97
2022-09-27T17:51:43.033Z,96205.06
2022-09-27T17:53:51.084Z,96217.06
2022-09-27T17:56:04.049Z,96207.81
2022-09-27T17:58:14.885Z,96224.72
2022-09-27T18:00:23.202Z,96218.81
2022-09-27T18:02:31.487Z,96220.72
2022-09-27T18:04:39.334Z,96219.56
2022-09-27T18:06:48.483Z,96232.38
2022-09-27T18:08:57.121Z,96236.31
2022-09-27T18:11:10.073Z,96244.53
2022-09-27T18:13:21.649Z,96252.38
2022-09-27T18:15:29.728Z,96249.50
2022-09-27T18:17:37.559Z,96248.34
2022-09-27T18:19:45.438Z,96247.41
2022-09-27T18:21:53.966Z,96250.44
2022-09-27T18:24:06.378Z,96248.03
2022-09-27T18:26:15.995Z,96257.09
2022-09-27T18:28:28.627Z,96252.75
2022-09-27T18:30:36.461Z,96245.44
2022-09-27T18:32:44.305Z,96246.66
2022-09-27T18:34:52.096Z,96247.16
2022-09-27T18:37:00.110Z,96243.91
2022-09-27T18:39:10.336Z,96245.38
2022-09-27T18:41:20.407Z,96239.69
2022-09-27T18:43:35.396Z,96235.75
2022-09-27T18:45:46.430Z,96229.34
2022-09-27T18:47:54.156Z,96225.16
2022-09-27T18:50:04.805Z,96224.78
2022-09-27T18:52:12.847Z,96232.50
2022-09-27T18:54:25.538Z,96229.72
2022-09-27T18:56:39.141Z,96238.88
2022-09-27T18:58:50.274Z,96240.59
2022-09-27T19:01:01.326Z,96236.97
2022-09-27T19:03:09.179Z,96228.91
2022-09-27T19:05:17.029Z,96233.59
2022-09-27T19:07:24.846Z,96238.78
2022-09-27T19:09:32.650Z,96240.97
2022-09-27T19:11:40.790Z,96249.97
2022-09-27T19:13:54.894Z,96249.75
2022-09-27T19:16:03.847Z,96253.81
2022-09-27T19:18:12.130Z,96256.47
2022-09-27T19:20:20.194Z,96256.38
2022-09-27T19:22:28.799Z,96257.69
2022-09-27T19:24:36.676Z,96255.41
2022-09-27T19:26:44.608Z,96264.06
2022-09-27T19:28:56.691Z,96262.38
2022-09-27T19:31:08.934Z,96259.75
2022-09-27T19:33:19.195Z,96262.13
2022-09-27T19:35:27.057Z,96254.41
2022-09-27T19:37:34.918Z,96248.13
2022-09-27T19:39:42.704Z,96250.53
2022-09-27T19:41:54.228Z,96245.47
2022-09-27T19:44:19.295Z,96253.38
2022-09-27T19:49:20.592Z,96238.31
2022-09-27T19:51:31.095Z,96241.81
2022-09-27T19:53:53.682Z,96234.22
2022-09-27T19:56:12.935Z,96232.66
2022-09-27T19:58:21.146Z,96226.63
2022-09-27T20:00:35.152Z,96218.19
2022-09-27T20:02:43.384Z,96220.13
2022-09-27T20:04:51.320Z,96219.31
2022-09-27T20:06:59.114Z,96223.81
2022-09-27T20:09:07.502Z,96220.97
2022-09-27T20:11:18.314Z,96218.13
2022-09-27T20:13:27.227Z,96221.19
2022-09-27T20:15:37.623Z,96215.91
2022-09-27T20:17:45.403Z,96212.16
2022-09-27T20:19:53.312Z,96195.72
2022-09-27T20:22:03.366Z,96191.19
2022-09-27T20:24:11.524Z,96188.53
2022-09-27T20:26:22.774Z,96197.53
2022-09-27T20:28:30.695Z,96191.75
2022-09-27T20:30:41.071Z,96191.88
2022-09-27T20:33:08.996Z,96179.63
2022-09-27T20:35:17.790Z,96180.13
2022-09-27T20:37:25.611Z,96183.13
2022-09-27T20:39:33.359Z,96183.47
2022-09-27T20:41:42.850Z,96176.19
2022-09-27T20:43:51.936Z,96176.75
2022-09-27T20:46:06.067Z,96178.38
2022-09-27T20:48:14.164Z,96179.81
2022-09-27T20:50:21.861Z,96168.13
2022-09-27T20:52:29.614Z,96156.16
2022-09-27T20:54:37.447Z,96158.31
2022-09-27T20:56:47.089Z,96162.28
2022-09-27T20:58:56.937Z,96165.78
2022-09-27T21:01:12.309Z,96158.69
2022-09-27T21:03:21.923Z,96154.59
2022-09-27T21:05:29.943Z,96157.97
2022-09-27T21:07:38.429Z,96155.09
2022-09-27T21:09:46.147Z,96153.53
2022-09-27T21:11:54.436Z,96167.38
2022-09-27T21:14:02.157Z,96166.75
2022-09-27T21:16:15.085Z,96172.41
2022-09-27T21:18:22.861Z,96167.25
2022-09-27T21:20:32.943Z,96170.84
2022-09-27T21:22:40.613Z,96168.56
2022-09-27T21:24:52.028Z,96171.91
2022-09-27T21:27:03.184Z,96167.72
2022-09-27T21:29:12.216Z,96167.00
2022-09-27T21:31:23.901Z,96162.28
2022-09-27T21:33:31.673Z,96167.50
2022-09-27T21:35:41.539Z,96166.75
2022-09-27T21:37:50.876Z,96161.59
2022-09-27T21:39:58.585Z,96159.66
2022-09-27T21:42:06.586Z,96162.78
2022-09-27T21:44:14.562Z,96161.47
2022-09-27T21:46:26.867Z,96162.19
2022-09-27T21:48:35.653Z,96149.53
2022-09-27T21:50:43.377Z,96159.91
2022-09-27T21:52:54.097Z,96166.28
2022-09-27T21:55:06.242Z,96161.91
2022-09-27T21:57:13.934Z,96161.94
2022-09-27T21:59:21.678Z,96156.72
2022-09-27T22:01:33.828Z,96156.97
2022-09-27T22:03:43.523Z,96156.34
2022-09-27T22:05:53.235Z,96145.41
2022-09-27T22:08:00.981Z,96145.50
2022-09-27T22:10:09.926Z,96145.03
2022-09-27T22:12:17.691Z,96133.59
2022-09-27T22:14:25.828Z,96137.09
2022-09-27T22:16:36.507Z,96129.16
2022-09-27T22:18:47.357Z,96115.75
2022-09-27T22:20:55.213Z,96108.22
2022-09-27T22:23:03.990Z,96106.31
2022-09-27T22:25:12.253Z,96097.41
2022-09-27T22:27:20.094Z,96099.22
2022-09-27T22:29:27.869Z,96087.41
2022-09-27T22:31:39.086Z,96084.91
2022-09-27T22:33:51.737Z,96080.22
2022-09-27T22:35:59.527Z,96077.06
2022-09-27T22:38:07.297Z,96074.66
2022-09-27T22:40:15.377Z,96063.69
2022-09-27T22:42:23.350Z,96066.16
2022-09-27T22:44:33.474Z,96059.63
2022-09-27T22:46:44.211Z,96056.41
2022-09-27T22:48:52.469Z,96051.94
2022-09-27T22:51:01.063Z,96044.47
2022-09-27T22:53:08.823Z,96040.25
2022-09-27T22:55:16.578Z,96032.06
2022-09-27T22:57:26.051Z,96024.31
2022-09-27T22:59:33.883Z,96012.38
2022-09-27T23:01:44.164Z,96004.19
2022-09-27T23:03:53.754Z,95999.25
2022-09-27T23:30:31.844Z,95954.84
2022-09-27T23:46:06.005Z,95918.78
2022-09-27T23:48:14.088Z,95906.50
2022-09-27T23:50:22.175Z,95896.19
2022-09-27T23:52:30.748Z,95903.53
2022-09-27T23:54:38.658Z,95904.38
2022-09-27T23:56:49.497Z,95895.34
2022-09-27T23:58:57.681Z,95884.78
